sensor_id;sensor_type;location;lat;lon;timestamp;temperature;humidity
13596;DHT22;6868;52.544;13.416;2023-05-10T00:53:07;15.30;43.10
13596;DHT22;6868;52.544;13.416;2023-05-10T00:56:09;11.90;99.90
13596;DHT22;6868;52.544;13.416;2023-05-10T00:59:05;11.80;99.90
13596;DHT22;6868;52.544;13.416;2023-05-10T01:16:47;11.50;99.90
13596;DHT22;6868;52.544;13.416;2023-05-10T01:19:57;11.40;99.90
13596;DHT22;6868;52.544;13.416;2023-05-10T01:35:10;11.30;99.90
13596;DHT22;6868;52.544;13.416;2023-05-10T01:37:59;11.20;99.90
13596;DHT22;6868;52.544;13.416;2023-05-10T01:41:12;11.20;99.90
13596;DHT22;6868;52.544;13.416;2023-05-10T01:47:29;11.20;99.90
13596;DHT22;6868;52.544;13.416;2023-05-10T01:59:49;11.00;99.90
13596;DHT22;6868;52.544;13.416;2023-05-10T02:05:49;11.00;99.90
13596;DHT22;6868;52.544;13.416;2023-05-10T02:08:46;10.90;99.90
13596;DHT22;6868;52.544;13.416;2023-05-10T02:11:32;10.80;99.90
13596;DHT22;6868;52.544;13.416;2023-05-10T02:13:59;10.80;99.90
13596;DHT22;6868;52.544;13.416;2023-05-10T02:16:28;10.80;99.90
13596;DHT22;6868;52.544;13.416;2023-05-10T02:18:56;10.80;99.90
13596;DHT22;6868;52.544;13.416;2023-05-10T02:21:23;10.70;99.90
13596;DHT22;6868;52.544;13.416;2023-05-10T02:26:17;10.70;99.90
13596;DHT22;6868;52.544;13.416;2023-05-10T02:28:47;10.70;99.90
13596;DHT22;6868;52.544;13.416;2023-05-10T02:31:14;10.70;99.90
13596;DHT22;6868;52.544;13.416;2023-05-10T02:33:42;10.60;99.90
13596;DHT22;6868;52.544;13.416;2023-05-10T02:36:10;10.60;99.90
13596;DHT22;6868;52.544;13.416;2023-05-10T02:38:39;10.60;99.90
13596;DHT22;6868;52.544;13.416;2023-05-10T02:41:06;10.60;99.90
13596;DHT22;6868;52.544;13.416;2023-05-10T02:43:36;10.60;99.90
13596;DHT22;6868;52.544;13.416;2023-05-10T02:46:04;10.50;99.90
13596;DHT22;6868;52.544;13.416;2023-05-10T02:48:30;10.50;99.90
13596;DHT22;6868;52.544;13.416;2023-05-10T02:51:00;10.50;99.90
13596;DHT22;6868;52.544;13.416;2023-05-10T02:53:30;10.50;99.90
13596;DHT22;6868;52.544;13.416;2023-05-10T02:55:58;10.50;99.90
13596;DHT22;6868;52.544;13.416;2023-05-10T02:58:26;10.40;99.90
13596;DHT22;6868;52.544;13.416;2023-05-10T03:00:53;10.40;99.90
13596;DHT22;6868;52.544;13.416;2023-05-10T03:03:20;10.40;99.90
13596;DHT22;6868;52.544;13.416;2023-05-10T03:05:47;10.40;99.90
13596;DHT22;6868;52.544;13.416;2023-05-10T03:08:15;10.30;99.90
13596;DHT22;6868;52.544;13.416;2023-05-10T03:10:45;10.30;99.90
13596;DHT22;6868;52.544;13.416;2023-05-10T03:13:16;10.30;99.90
13596;DHT22;6868;52.544;13.416;2023-05-10T03:15:50;10.30;99.90
13596;DHT22;6868;52.544;13.416;2023-05-10T03:18:20;10.30;99.90
13596;DHT22;6868;52.544;13.416;2023-05-10T03:20:48;10.30;99.90
13596;DHT22;6868;52.544;13.416;2023-05-10T03:23:19;10.30;99.90
13596;DHT22;6868;52.544;13.416;2023-05-10T03:25:48;10.20;99.90
13596;DHT22;6868;52.544;13.416;2023-05-10T03:28:15;10.20;99.90
13596;DHT22;6868;52.544;13.416;2023-05-10T03:30:42;10.20;99.90
13596;DHT22;6868;52.544;13.416;2023-05-10T03:33:10;10.20;99.90
13596;DHT22;6868;52.544;13.416;2023-05-10T03:35:38;10.20;99.90
13596;DHT22;6868;52.544;13.416;2023-05-10T03:38:04;10.20;99.90
13596;DHT22;6868;52.544;13.416;2023-05-10T03:40:33;10.20;99.90
13596;DHT22;6868;52.544;13.416;2023-05-10T03:42:59;10.20;99.90
13596;DHT22;6868;52.544;13.416;2023-05-10T03:45:26;10.20;99.90
13596;DHT22;6868;52.544;13.416;2023-05-10T03:47:53;10.20;99.90
13596;DHT22;6868;52.544;13.416;2023-05-10T03:50:20;10.20;99.90
13596;DHT22;6868;52.544;13.416;2023-05-10T03:52:47;10.20;99.90
13596;DHT22;6868;52.544;13.416;2023-05-10T03:55:14;10.20;99.90
13596;DHT22;6868;52.544;13.416;2023-05-10T03:57:44;10.20;99.90
13596;DHT22;6868;52.544;13.416;2023-05-10T04:00:11;10.20;99.90
13596;DHT22;6868;52.544;13.416;2023-05-10T04:02:38;10.20;99.90
13596;DHT22;6868;52.544;13.416;2023-05-10T04:05:05;10.30;99.90
13596;DHT22;6868;52.544;13.416;2023-05-10T04:07:32;10.20;99.90
13596;DHT22;6868;52.544;13.416;2023-05-10T04:10:02;10.20;99.90
13596;DHT22;6868;52.544;13.416;2023-05-10T04:12:29;10.30;99.90
13596;DHT22;6868;52.544;13.416;2023-05-10T04:14:57;10.30;99.90
13596;DHT22;6868;52.544;13.416;2023-05-10T04:17:24;10.30;99.90
13596;DHT22;6868;52.544;13.416;2023-05-10T04:19:50;10.30;99.90
13596;DHT22;6868;52.544;13.416;2023-05-10T04:22:20;10.30;99.90
13596;DHT22;6868;52.544;13.416;2023-05-10T04:24:46;10.30;99.90
13596;DHT22;6868;52.544;13.416;2023-05-10T04:27:13;10.40;99.90
13596;DHT22;6868;52.544;13.416;2023-05-10T04:29:40;10.40;99.90
13596;DHT22;6868;52.544;13.416;2023-05-10T04:32:08;10.50;99.90
13596;DHT22;6868;52.544;13.416;2023-05-10T04:34:35;10.50;99.90
13596;DHT22;6868;52.544;13.416;2023-05-10T04:37:02;10.60;99.90
13596;DHT22;6868;52.544;13.416;2023-05-10T04:39:29;10.60;99.90
13596;DHT22;6868;52.544;13.416;2023-05-10T04:41:56;10.60;99.90
13596;DHT22;6868;52.544;13.416;2023-05-10T04:44:23;10.70;99.90
13596;DHT22;6868;52.544;13.416;2023-05-10T04:46:49;10.80;99.90
13596;DHT22;6868;52.544;13.416;2023-05-10T04:49:17;10.80;99.90
13596;DHT22;6868;52.544;13.416;2023-05-10T04:51:45;10.90;99.90
13596;DHT22;6868;52.544;13.416;2023-05-10T04:54:12;11.00;99.90
13596;DHT22;6868;52.544;13.416;2023-05-10T04:56:38;11.20;99.90
13596;DHT22;6868;52.544;13.416;2023-05-10T04:59:06;11.40;99.90
13596;DHT22;6868;52.544;13.416;2023-05-10T05:01:33;11.80;99.90
13596;DHT22;6868;52.544;13.416;2023-05-10T05:03:59;12.50;99.90
13596;DHT22;6868;52.544;13.416;2023-05-10T05:06:28;13.00;99.90
13596;DHT22;6868;52.544;13.416;2023-05-10T05:08:54;13.40;99.90
13596;DHT22;6868;52.544;13.416;2023-05-10T05:11:21;13.60;99.90
13596;DHT22;6868;52.544;13.416;2023-05-10T05:13:48;13.60;99.90
13596;DHT22;6868;52.544;13.416;2023-05-10T05:16:15;13.80;99.90
13596;DHT22;6868;52.544;13.416;2023-05-10T05:18:41;13.90;99.90
13596;DHT22;6868;52.544;13.416;2023-05-10T05:21:14;14.00;99.90
13596;DHT22;6868;52.544;13.416;2023-05-10T05:23:43;14.40;99.90
13596;DHT22;6868;52.544;13.416;2023-05-10T05:26:10;14.60;99.90
13596;DHT22;6868;52.544;13.416;2023-05-10T05:28:37;14.60;99.90
13596;DHT22;6868;52.544;13.416;2023-05-10T05:31:04;14.70;99.90
13596;DHT22;6868;52.544;13.416;2023-05-10T05:33:30;14.80;99.90
13596;DHT22;6868;52.544;13.416;2023-05-10T05:35:59;15.00;99.90
13596;DHT22;6868;52.544;13.416;2023-05-10T05:38:26;15.00;99.90
13596;DHT22;6868;52.544;13.416;2023-05-10T05:40:54;15.10;99.90
13596;DHT22;6868;52.544;13.416;2023-05-10T05:43:23;15.30;99.90
13596;DHT22;6868;52.544;13.416;2023-05-10T05:45:53;15.40;99.90
13596;DHT22;6868;52.544;13.416;2023-05-10T05:48:20;15.30;99.90
13596;DHT22;6868;52.544;13.416;2023-05-10T05:50:46;15.00;99.90
13596;DHT22;6868;52.544;13.416;2023-05-10T05:53:13;15.20;99.90
13596;DHT22;6868;52.544;13.416;2023-05-10T05:55:40;15.20;99.90
13596;DHT22;6868;52.544;13.416;2023-05-10T05:58:11;15.30;99.90
